sensor_id;sensor_type;location;lat;lon;timestamp;P1;durP1;ratioP1;P2;durP2;ratioP2
20381;SDS011;10350;51.280;12.400;2023-02-28T00:00:25;4.28;;;2.88;;
20381;SDS011;10350;51.280;12.400;2023-02-28T00:02:51;3.92;;;2.92;;
20381;SDS011;10350;51.280;12.400;2023-02-28T00:05:18;5.20;;;3.22;;
20381;SDS011;10350;51.280;12.400;2023-02-28T00:07:44;5.85;;;3.10;;
20381;SDS011;10350;51.280;12.400;2023-02-28T00:10:11;4.65;;;2.63;;
20381;SDS011;10350;51.280;12.400;2023-02-28T00:12:38;7.43;;;3.50;;
20381;SDS011;10350;51.280;12.400;2023-02-28T00:15:08;4.35;;;3.28;;
20381;SDS011;10350;51.280;12.400;2023-02-28T00:17:34;4.25;;;3.22;;
20381;SDS011;10350;51.280;12.400;2023-02-28T00:20:00;5.47;;;2.83;;
20381;SDS011;10350;51.280;12.400;2023-02-28T00:22:26;6.85;;;3.20;;
20381;SDS011;10350;51.280;12.400;2023-02-28T00:24:52;3.80;;;3.00;;
20381;SDS011;10350;51.280;12.400;2023-02-28T00:27:18;5.28;;;3.00;;
20381;SDS011;10350;51.280;12.400;2023-02-28T00:29:46;6.05;;;2.75;;
20381;SDS011;10350;51.280;12.400;2023-02-28T00:32:12;3.95;;;3.00;;
20381;SDS011;10350;51.280;12.400;2023-02-28T00:34:38;5.57;;;3.08;;
20381;SDS011;10350;51.280;12.400;2023-02-28T00:37:04;5.75;;;2.92;;
20381;SDS011;10350;51.280;12.400;2023-02-28T00:39:31;4.28;;;2.80;;
20381;SDS011;10350;51.280;12.400;2023-02-28T00:41:57;5.80;;;3.13;;
20381;SDS011;10350;51.280;12.400;2023-02-28T00:44:23;5.60;;;3.10;;
20381;SDS011;10350;51.280;12.400;2023-02-28T00:46:48;4.85;;;2.75;;
20381;SDS011;10350;51.280;12.400;2023-02-28T00:49:14;4.00;;;2.75;;
20381;SDS011;10350;51.280;12.400;2023-02-28T00:51:40;2.80;;;2.60;;
20381;SDS011;10350;51.280;12.400;2023-02-28T00:54:06;5.20;;;2.70;;
20381;SDS011;10350;51.280;12.400;2023-02-28T00:56:32;5.47;;;3.25;;
20381;SDS011;10350;51.280;12.400;2023-02-28T00:58:58;4.05;;;3.20;;
20381;SDS011;10350;51.280;12.400;2023-02-28T01:01:24;6.78;;;2.85;;
20381;SDS011;10350;51.280;12.400;2023-02-28T01:03:50;3.53;;;2.85;;
20381;SDS011;10350;51.280;12.400;2023-02-28T01:06:16;6.85;;;3.40;;
20381;SDS011;10350;51.280;12.400;2023-02-28T01:08:42;5.10;;;3.53;;
20381;SDS011;10350;51.280;12.400;2023-02-28T01:11:11;5.35;;;3.33;;
20381;SDS011;10350;51.280;12.400;2023-02-28T01:13:37;5.55;;;3.65;;
20381;SDS011;10350;51.280;12.400;2023-02-28T01:16:04;5.32;;;3.35;;
20381;SDS011;10350;51.280;12.400;2023-02-28T01:18:30;7.78;;;3.22;;
20381;SDS011;10350;51.280;12.400;2023-02-28T01:20:56;5.15;;;3.33;;
20381;SDS011;10350;51.280;12.400;2023-02-28T01:23:22;6.55;;;3.00;;
20381;SDS011;10350;51.280;12.400;2023-02-28T01:25:48;5.90;;;3.10;;
20381;SDS011;10350;51.280;12.400;2023-02-28T01:28:14;5.40;;;3.40;;
20381;SDS011;10350;51.280;12.400;2023-02-28T01:30:40;5.15;;;3.28;;
20381;SDS011;10350;51.280;12.400;2023-02-28T01:33:06;5.68;;;3.33;;
20381;SDS011;10350;51.280;12.400;2023-02-28T01:35:33;9.70;;;3.30;;
20381;SDS011;10350;51.280;12.400;2023-02-28T01:37:59;4.63;;;2.80;;
20381;SDS011;10350;51.280;12.400;2023-02-28T01:40:25;5.53;;;3.58;;
20381;SDS011;10350;51.280;12.400;2023-02-28T01:42:51;5.70;;;3.30;;
20381;SDS011;10350;51.280;12.400;2023-02-28T01:45:27;4.93;;;3.00;;
20381;SDS011;10350;51.280;12.400;2023-02-28T01:47:58;4.95;;;3.17;;
20381;SDS011;10350;51.280;12.400;2023-02-28T01:50:27;6.28;;;2.97;;
20381;SDS011;10350;51.280;12.400;2023-02-28T01:52:54;3.45;;;2.88;;
20381;SDS011;10350;51.280;12.400;2023-02-28T01:55:21;6.93;;;3.65;;
20381;SDS011;10350;51.280;12.400;2023-02-28T01:57:49;7.22;;;3.22;;
20381;SDS011;10350;51.280;12.400;2023-02-28T02:02:43;6.65;;;3.55;;
20381;SDS011;10350;51.280;12.400;2023-02-28T02:05:17;4.45;;;2.78;;
20381;SDS011;10350;51.280;12.400;2023-02-28T02:07:45;4.57;;;3.05;;
20381;SDS011;10350;51.280;12.400;2023-02-28T02:10:12;5.05;;;3.42;;
20381;SDS011;10350;51.280;12.400;2023-02-28T02:15:12;4.30;;;3.10;;
20381;SDS011;10350;51.280;12.400;2023-02-28T02:17:48;4.25;;;3.13;;
20381;SDS011;10350;51.280;12.400;2023-02-28T02:20:27;3.45;;;2.75;;
20381;SDS011;10350;51.280;12.400;2023-02-28T02:23:07;5.32;;;3.22;;
20381;SDS011;10350;51.280;12.400;2023-02-28T02:28:11;4.85;;;3.25;;
20381;SDS011;10350;51.280;12.400;2023-02-28T02:33:42;6.32;;;3.05;;
20381;SDS011;10350;51.280;12.400;2023-02-28T02:36:12;4.80;;;2.95;;
20381;SDS011;10350;51.280;12.400;2023-02-28T02:38:53;6.70;;;3.22;;
20381;SDS011;10350;51.280;12.400;2023-02-28T02:41:34;5.22;;;3.17;;
20381;SDS011;10350;51.280;12.400;2023-02-28T02:44:11;5.80;;;3.15;;
20381;SDS011;10350;51.280;12.400;2023-02-28T02:46:39;5.05;;;3.22;;
20381;SDS011;10350;51.280;12.400;2023-02-28T02:49:08;5.95;;;3.10;;
20381;SDS011;10350;51.280;12.400;2023-02-28T02:51:35;7.05;;;2.97;;
20381;SDS011;10350;51.280;12.400;2023-02-28T02:54:05;5.82;;;3.38;;
20381;SDS011;10350;51.280;12.400;2023-02-28T02:56:33;6.50;;;3.17;;
20381;SDS011;10350;51.280;12.400;2023-02-28T02:59:06;4.40;;;3.40;;
20381;SDS011;10350;51.280;12.400;2023-02-28T03:01:34;5.15;;;3.15;;
20381;SDS011;10350;51.280;12.400;2023-02-28T03:04:01;6.43;;;3.28;;
20381;SDS011;10350;51.280;12.400;2023-02-28T03:06:28;4.20;;;2.70;;
20381;SDS011;10350;51.280;12.400;2023-02-28T03:08:54;4.88;;;3.45;;
20381;SDS011;10350;51.280;12.400;2023-02-28T03:11:20;5.63;;;3.25;;
20381;SDS011;10350;51.280;12.400;2023-02-28T03:21:32;8.80;;;3.10;;
20381;SDS011;10350;51.280;12.400;2023-02-28T03:24:10;4.90;;;2.83;;
20381;SDS011;10350;51.280;12.400;2023-02-28T03:26:42;5.45;;;3.00;;
20381;SDS011;10350;51.280;12.400;2023-02-28T03:29:16;4.22;;;3.03;;
20381;SDS011;10350;51.280;12.400;2023-02-28T03:31:54;4.63;;;3.13;;
20381;SDS011;10350;51.280;12.400;2023-02-28T03:34:26;6.20;;;3.00;;
20381;SDS011;10350;51.280;12.400;2023-02-28T03:36:57;5.32;;;3.30;;
20381;SDS011;10350;51.280;12.400;2023-02-28T03:39:34;4.78;;;3.42;;
20381;SDS011;10350;51.280;12.400;2023-02-28T03:42:01;5.50;;;3.00;;
20381;SDS011;10350;51.280;12.400;2023-02-28T03:46:57;7.18;;;3.53;;
20381;SDS011;10350;51.280;12.400;2023-02-28T03:49:27;4.28;;;3.30;;
20381;SDS011;10350;51.280;12.400;2023-02-28T03:51:54;7.25;;;3.30;;
20381;SDS011;10350;51.280;12.400;2023-02-28T03:54:22;5.53;;;3.40;;
20381;SDS011;10350;51.280;12.400;2023-02-28T03:57:03;5.60;;;3.38;;
20381;SDS011;10350;51.280;12.400;2023-02-28T03:59:36;5.22;;;3.10;;
20381;SDS011;10350;51.280;12.400;2023-02-28T04:02:02;7.00;;;3.35;;
20381;SDS011;10350;51.280;12.400;2023-02-28T04:04:28;6.72;;;3.33;;
20381;SDS011;10350;51.280;12.400;2023-02-28T04:07:00;5.85;;;3.65;;
20381;SDS011;10350;51.280;12.400;2023-02-28T04:09:27;5.65;;;3.13;;
20381;SDS011;10350;51.280;12.400;2023-02-28T04:11:53;4.30;;;3.22;;
20381;SDS011;10350;51.280;12.400;2023-02-28T04:14:20;5.93;;;3.73;;
20381;SDS011;10350;51.280;12.400;2023-02-28T04:16:46;8.10;;;3.90;;
20381;SDS011;10350;51.280;12.400;2023-02-28T04:19:13;5.30;;;3.20;;
20381;SDS011;10350;51.280;12.400;2023-02-28T04:21:43;5.43;;;3.33;;
20381;SDS011;10350;51.280;12.400;2023-02-28T04:24:10;7.30;;;3.30;;
20381;SDS011;10350;51.280;12.400;2023-02-28T04:26:39;8.18;;;3.30;;
20381;SDS011;10350;51.280;12.400;2023-02-28T04:29:06;5.07;;;3.30;;
20381;SDS011;10350;51.280;12.400;2023-02-28T04:31:32;6.18;;;2.92;;
20381;SDS011;10350;51.280;12.400;2023-02-28T04:33:58;8.77;;;3.67;;
20381;SDS011;10350;51.280;12.400;2023-02-28T04:36:24;4.40;;;3.60;;
20381;SDS011;10350;51.280;12.400;2023-02-28T04:38:50;8.52;;;3.42;;
20381;SDS011;10350;51.280;12.400;2023-02-28T04:41:16;4.80;;;3.20;;
20381;SDS011;10350;51.280;12.400;2023-02-28T04:43:42;6.18;;;4.18;;
20381;SDS011;10350;51.280;12.400;2023-02-28T04:46:08;7.88;;;4.10;;
20381;SDS011;10350;51.280;12.400;2023-02-28T04:48:36;5.03;;;3.50;;
20381;SDS011;10350;51.280;12.400;2023-02-28T04:51:06;7.80;;;3.22;;
20381;SDS011;10350;51.280;12.400;2023-02-28T04:53:33;6.45;;;3.78;;
20381;SDS011;10350;51.280;12.400;2023-02-28T04:55:59;6.63;;;3.63;;
20381;SDS011;10350;51.280;12.400;2023-02-28T04:58:25;5.70;;;3.53;;
20381;SDS011;10350;51.280;12.400;2023-02-28T05:00:52;16.92;;;8.52;;
20381;SDS011;10350;51.280;12.400;2023-02-28T05:03:18;13.90;;;7.57;;
20381;SDS011;10350;51.280;12.400;2023-02-28T05:05:45;8.32;;;4.50;;
20381;SDS011;10350;51.280;12.400;2023-02-28T05:08:11;6.72;;;3.50;;
20381;SDS011;10350;51.280;12.400;2023-02-28T05:10:37;5.88;;;4.07;;
20381;SDS011;10350;51.280;12.400;2023-02-28T05:13:03;9.25;;;4.28;;
20381;SDS011;10350;51.280;12.400;2023-02-28T05:15:29;7.95;;;3.63;;
20381;SDS011;10350;51.280;12.400;2023-02-28T05:17:55;7.05;;;3.35;;
20381;SDS011;10350;51.280;12.400;2023-02-28T05:20:21;5.35;;;3.78;;
20381;SDS011;10350;51.280;12.400;2023-02-28T05:22:47;6.13;;;3.90;;
20381;SDS011;10350;51.280;12.400;2023-02-28T05:25:15;6.90;;;4.03;;
20381;SDS011;10350;51.280;12.400;2023-02-28T05:27:41;4.50;;;3.17;;
20381;SDS011;10350;51.280;12.400;2023-02-28T05:30:08;5.57;;;3.63;;
20381;SDS011;10350;51.280;12.400;2023-02-28T05:32:35;7.70;;;4.00;;
20381;SDS011;10350;51.280;12.400;2023-02-28T05:35:01;5.60;;;3.92;;
20381;SDS011;10350;51.280;12.400;2023-02-28T05:37:27;7.15;;;4.18;;
20381;SDS011;10350;51.280;12.400;2023-02-28T05:39:53;6.20;;;3.35;;
20381;SDS011;10350;51.280;12.400;2023-02-28T05:42:19;7.10;;;3.50;;
20381;SDS011;10350;51.280;12.400;2023-02-28T05:44:45;6.07;;;4.03;;
20381;SDS011;10350;51.280;12.400;2023-02-28T05:47:11;7.75;;;4.65;;
20381;SDS011;10350;51.280;12.400;2023-02-28T05:49:40;8.35;;;4.18;;
20381;SDS011;10350;51.280;12.400;2023-02-28T05:52:06;8.02;;;3.97;;
20381;SDS011;10350;51.280;12.400;2023-02-28T05:54:32;7.57;;;4.20;;
20381;SDS011;10350;51.280;12.400;2023-02-28T05:56:57;9.38;;;4.53;;
20381;SDS011;10350;51.280;12.400;2023-02-28T05:59:23;11.82;;;4.30;;
20381;SDS011;10350;51.280;12.400;2023-02-28T06:01:49;9.65;;;4.50;;
20381;SDS011;10350;51.280;12.400;2023-02-28T06:04:18;6.57;;;4.10;;
20381;SDS011;10350;51.280;12.400;2023-02-28T06:06:45;4.63;;;3.33;;
20381;SDS011;10350;51.280;12.400;2023-02-28T06:09:11;6.43;;;4.05;;
20381;SDS011;10350;51.280;12.400;2023-02-28T06:11:38;4.75;;;3.28;;
20381;SDS011;10350;51.280;12.400;2023-02-28T06:14:04;8.32;;;4.10;;
20381;SDS011;10350;51.280;12.400;2023-02-28T06:16:31;5.50;;;3.97;;
20381;SDS011;10350;51.280;12.400;2023-02-28T06:18:58;7.35;;;4.40;;
20381;SDS011;10350;51.280;12.400;2023-02-28T06:21:24;5.75;;;3.90;;
20381;SDS011;10350;51.280;12.400;2023-02-28T06:23:52;8.20;;;4.20;;
20381;SDS011;10350;51.280;12.400;2023-02-28T06:26:18;5.57;;;3.83;;
20381;SDS011;10350;51.280;12.400;2023-02-28T06:28:44;7.18;;;4.13;;
20381;SDS011;10350;51.280;12.400;2023-02-28T06:31:11;11.88;;;4.85;;
20381;SDS011;10350;51.280;12.400;2023-02-28T06:33:37;8.48;;;3.92;;
20381;SDS011;10350;51.280;12.400;2023-02-28T06:36:04;10.02;;;4.75;;
20381;SDS011;10350;51.280;12.400;2023-02-28T06:38:31;8.18;;;3.97;;
20381;SDS011;10350;51.280;12.400;2023-02-28T06:40:57;6.25;;;3.90;;
20381;SDS011;10350;51.280;12.400;2023-02-28T06:43:24;11.77;;;4.20;;
20381;SDS011;10350;51.280;12.400;2023-02-28T06:45:53;7.28;;;4.53;;
20381;SDS011;10350;51.280;12.400;2023-02-28T06:48:19;8.15;;;3.85;;
20381;SDS011;10350;51.280;12.400;2023-02-28T06:50:45;6.28;;;3.85;;
20381;SDS011;10350;51.280;12.400;2023-02-28T06:53:11;7.68;;;4.20;;
20381;SDS011;10350;51.280;12.400;2023-02-28T06:55:38;7.65;;;3.92;;
20381;SDS011;10350;51.280;12.400;2023-02-28T06:58:04;8.35;;;4.78;;
20381;SDS011;10350;51.280;12.400;2023-02-28T07:00:39;6.63;;;4.30;;
20381;SDS011;10350;51.280;12.400;2023-02-28T07:03:05;7.93;;;4.40;;
20381;SDS011;10350;51.280;12.400;2023-02-28T07:05:31;6.85;;;4.40;;
20381;SDS011;10350;51.280;12.400;2023-02-28T07:07:57;6.90;;;4.22;;
20381;SDS011;10350;51.280;12.400;2023-02-28T07:10:23;7.38;;;4.22;;
20381;SDS011;10350;51.280;12.400;2023-02-28T07:12:49;8.45;;;4.07;;
20381;SDS011;10350;51.280;12.400;2023-02-28T07:15:16;8.18;;;4.60;;
20381;SDS011;10350;51.280;12.400;2023-02-28T07:17:42;10.35;;;4.78;;
20381;SDS011;10350;51.280;12.400;2023-02-28T07:20:08;8.57;;;4.38;;
20381;SDS011;10350;51.280;12.400;2023-02-28T07:22:34;6.93;;;4.05;;
20381;SDS011;10350;51.280;12.400;2023-02-28T07:25:00;12.20;;;5.00;;
20381;SDS011;10350;51.280;12.400;2023-02-28T07:27:26;6.93;;;4.85;;
20381;SDS011;10350;51.280;12.400;2023-02-28T07:29:52;13.98;;;5.00;;
20381;SDS011;10350;51.280;12.400;2023-02-28T07:32:19;7.30;;;4.63;;
20381;SDS011;10350;51.280;12.400;2023-02-28T07:34:45;10.07;;;4.25;;
20381;SDS011;10350;51.280;12.400;2023-02-28T07:37:11;16.83;;;4.93;;
20381;SDS011;10350;51.280;12.400;2023-02-28T07:39:37;10.30;;;4.10;;
20381;SDS011;10350;51.280;12.400;2023-02-28T07:42:06;7.60;;;4.95;;
20381;SDS011;10350;51.280;12.400;2023-02-28T07:44:35;12.80;;;4.25;;
20381;SDS011;10350;51.280;12.400;2023-02-28T07:47:05;10.18;;;5.00;;
20381;SDS011;10350;51.280;12.400;2023-02-28T07:49:31;8.18;;;4.35;;
20381;SDS011;10350;51.280;12.400;2023-02-28T07:51:57;8.95;;;4.57;;
20381;SDS011;10350;51.280;12.400;2023-02-28T07:54:22;6.70;;;4.10;;
20381;SDS011;10350;51.280;12.400;2023-02-28T07:56:48;7.40;;;4.43;;
20381;SDS011;10350;51.280;12.400;2023-02-28T07:59:14;8.18;;;4.07;;
20381;SDS011;10350;51.280;12.400;2023-02-28T08:01:40;9.55;;;4.85;;
20381;SDS011;10350;51.280;12.400;2023-02-28T08:04:06;10.50;;;4.78;;
20381;SDS011;10350;51.280;12.400;2023-02-28T08:06:32;6.57;;;4.15;;
20381;SDS011;10350;51.280;12.400;2023-02-28T08:08:58;8.63;;;4.82;;
20381;SDS011;10350;51.280;12.400;2023-02-28T08:11:24;8.68;;;4.80;;
20381;SDS011;10350;51.280;12.400;2023-02-28T08:13:50;6.78;;;4.47;;
20381;SDS011;10350;51.280;12.400;2023-02-28T08:16:16;7.90;;;4.70;;
20381;SDS011;10350;51.280;12.400;2023-02-28T08:18:46;8.50;;;4.70;;
20381;SDS011;10350;51.280;12.400;2023-02-28T08:21:12;9.50;;;4.72;;
20381;SDS011;10350;51.280;12.400;2023-02-28T08:23:38;10.35;;;4.55;;
20381;SDS011;10350;51.280;12.400;2023-02-28T08:26:04;10.52;;;4.93;;
20381;SDS011;10350;51.280;12.400;2023-02-28T08:28:30;8.02;;;4.82;;
20381;SDS011;10350;51.280;12.400;2023-02-28T08:30:56;9.98;;;4.60;;
20381;SDS011;10350;51.280;12.400;2023-02-28T08:33:23;6.75;;;4.85;;
20381;SDS011;10350;51.280;12.400;2023-02-28T08:35:51;8.30;;;4.32;;
20381;SDS011;10350;51.280;12.400;2023-02-28T08:38:17;7.05;;;4.70;;
20381;SDS011;10350;51.280;12.400;2023-02-28T08:40:43;7.47;;;4.47;;
20381;SDS011;10350;51.280;12.400;2023-02-28T08:43:09;7.80;;;5.22;;
20381;SDS011;10350;51.280;12.400;2023-02-28T08:45:35;5.50;;;4.28;;
20381;SDS011;10350;51.280;12.400;2023-02-28T08:48:01;5.82;;;4.43;;
20381;SDS011;10350;51.280;12.400;2023-02-28T08:50:27;8.25;;;5.35;;
20381;SDS011;10350;51.280;12.400;2023-02-28T08:52:53;6.85;;;4.50;;
20381;SDS011;10350;51.280;12.400;2023-02-28T08:55:19;6.82;;;4.32;;
20381;SDS011;10350;51.280;12.400;2023-02-28T08:57:45;8.30;;;4.65;;
20381;SDS011;10350;51.280;12.400;2023-02-28T09:00:11;8.52;;;4.47;;
20381;SDS011;10350;51.280;12.400;2023-02-28T09:02:38;7.80;;;4.65;;
20381;SDS011;10350;51.280;12.400;2023-02-28T09:05:04;8.52;;;4.57;;
20381;SDS011;10350;51.280;12.400;2023-02-28T09:07:30;9.77;;;4.50;;
20381;SDS011;10350;51.280;12.400;2023-02-28T09:09:56;5.78;;;4.32;;
20381;SDS011;10350;51.280;12.400;2023-02-28T09:12:26;8.40;;;5.18;;
20381;SDS011;10350;51.280;12.400;2023-02-28T09:14:52;7.05;;;4.90;;
20381;SDS011;10350;51.280;12.400;2023-02-28T09:17:18;6.28;;;5.10;;
20381;SDS011;10350;51.280;12.400;2023-02-28T09:19:45;7.15;;;4.95;;
20381;SDS011;10350;51.280;12.400;2023-02-28T09:22:12;6.65;;;4.90;;
20381;SDS011;10350;51.280;12.400;2023-02-28T09:24:38;6.28;;;5.00;;
20381;SDS011;10350;51.280;12.400;2023-02-28T09:27:04;7.28;;;5.53;;
20381;SDS011;10350;51.280;12.400;2023-02-28T09:29:31;6.80;;;5.25;;
20381;SDS011;10350;51.280;12.400;2023-02-28T09:31:58;6.32;;;5.15;;
20381;SDS011;10350;51.280;12.400;2023-02-28T09:34:24;8.98;;;5.13;;
20381;SDS011;10350;51.280;12.400;2023-02-28T09:36:50;5.85;;;4.63;;
20381;SDS011;10350;51.280;12.400;2023-02-28T09:39:20;7.80;;;4.78;;
20381;SDS011;10350;51.280;12.400;2023-02-28T09:41:47;6.72;;;5.57;;
20381;SDS011;10350;51.280;12.400;2023-02-28T09:44:58;8.60;;;5.43;;
20381;SDS011;10350;51.280;12.400;2023-02-28T09:49:49;5.88;;;4.43;;
20381;SDS011;10350;51.280;12.400;2023-02-28T09:52:20;9.63;;;4.70;;
20381;SDS011;10350;51.280;12.400;2023-02-28T09:54:46;7.03;;;4.45;;
20381;SDS011;10350;51.280;12.400;2023-02-28T09:59:40;6.78;;;4.22;;
20381;SDS011;10350;51.280;12.400;2023-02-28T10:02:19;6.10;;;4.30;;
20381;SDS011;10350;51.280;12.400;2023-02-28T10:04:50;6.65;;;4.50;;
20381;SDS011;10350;51.280;12.400;2023-02-28T10:07:21;7.25;;;4.65;;
20381;SDS011;10350;51.280;12.400;2023-02-28T10:09:50;5.85;;;4.78;;
20381;SDS011;10350;51.280;12.400;2023-02-28T10:12:17;6.07;;;4.60;;
20381;SDS011;10350;51.280;12.400;2023-02-28T10:14:45;5.40;;;4.60;;
20381;SDS011;10350;51.280;12.400;2023-02-28T10:17:13;7.82;;;4.53;;
20381;SDS011;10350;51.280;12.400;2023-02-28T10:22:14;7.07;;;4.95;;
20381;SDS011;10350;51.280;12.400;2023-02-28T10:27:16;7.75;;;4.53;;
20381;SDS011;10350;51.280;12.400;2023-02-28T10:29:43;5.93;;;4.88;;
20381;SDS011;10350;51.280;12.400;2023-02-28T10:32:10;5.57;;;4.90;;
20381;SDS011;10350;51.280;12.400;2023-02-28T10:34:36;6.72;;;5.22;;
20381;SDS011;10350;51.280;12.400;2023-02-28T10:37:02;7.65;;;4.78;;
20381;SDS011;10350;51.280;12.400;2023-02-28T10:39:36;5.47;;;4.57;;
20381;SDS011;10350;51.280;12.400;2023-02-28T10:42:03;5.93;;;4.65;;
20381;SDS011;10350;51.280;12.400;2023-02-28T10:44:29;5.07;;;4.20;;
20381;SDS011;10350;51.280;12.400;2023-02-28T10:46:55;7.70;;;5.10;;
20381;SDS011;10350;51.280;12.400;2023-02-28T10:49:27;5.70;;;4.43;;
20381;SDS011;10350;51.280;12.400;2023-02-28T10:51:55;6.38;;;5.10;;
20381;SDS011;10350;51.280;12.400;2023-02-28T10:54:23;5.93;;;5.05;;
20381;SDS011;10350;51.280;12.400;2023-02-28T11:00:17;6.97;;;5.93;;
20381;SDS011;10350;51.280;12.400;2023-02-28T11:02:39;9.65;;;6.25;;
20381;SDS011;10350;51.280;12.400;2023-02-28T11:05:21;7.63;;;6.00;;
20381;SDS011;10350;51.280;12.400;2023-02-28T11:07:56;8.27;;;5.65;;
20381;SDS011;10350;51.280;12.400;2023-02-28T11:10:24;6.50;;;5.70;;
20381;SDS011;10350;51.280;12.400;2023-02-28T11:12:53;7.32;;;5.93;;
20381;SDS011;10350;51.280;12.400;2023-02-28T11:15:24;6.07;;;5.50;;
20381;SDS011;10350;51.280;12.400;2023-02-28T11:17:59;7.05;;;5.72;;
20381;SDS011;10350;51.280;12.400;2023-02-28T11:20:27;6.82;;;5.40;;
20381;SDS011;10350;51.280;12.400;2023-02-28T11:22:53;6.28;;;5.70;;
20381;SDS011;10350;51.280;12.400;2023-02-28T11:25:25;7.53;;;5.75;;
20381;SDS011;10350;51.280;12.400;2023-02-28T11:27:52;6.68;;;5.75;;
20381;SDS011;10350;51.280;12.400;2023-02-28T11:30:23;6.27;;;5.67;;
20381;SDS011;10350;51.280;12.400;2023-02-28T11:32:49;7.80;;;6.38;;
20381;SDS011;10350;51.280;12.400;2023-02-28T11:35:17;10.68;;;6.28;;
20381;SDS011;10350;51.280;12.400;2023-02-28T11:37:47;7.72;;;6.85;;
20381;SDS011;10350;51.280;12.400;2023-02-28T11:40:36;9.85;;;6.43;;
20381;SDS011;10350;51.280;12.400;2023-02-28T11:45:42;9.40;;;6.40;;
20381;SDS011;10350;51.280;12.400;2023-02-28T11:48:22;10.70;;;6.38;;
20381;SDS011;10350;51.280;12.400;2023-02-28T11:56:15;8.52;;;6.88;;
20381;SDS011;10350;51.280;12.400;2023-02-28T11:58:59;8.68;;;6.95;;
20381;SDS011;10350;51.280;12.400;2023-02-28T12:01:33;9.52;;;6.25;;
20381;SDS011;10350;51.280;12.400;2023-02-28T12:04:20;7.93;;;5.85;;
20381;SDS011;10350;51.280;12.400;2023-02-28T12:06:52;7.80;;;6.13;;
20381;SDS011;10350;51.280;12.400;2023-02-28T12:09:40;9.30;;;5.82;;
20381;SDS011;10350;51.280;12.400;2023-02-28T12:17:46;10.45;;;6.70;;
20381;SDS011;10350;51.280;12.400;2023-02-28T12:20:22;10.93;;;7.07;;
20381;SDS011;10350;51.280;12.400;2023-02-28T12:23:34;8.85;;;6.60;;
20381;SDS011;10350;51.280;12.400;2023-02-28T12:26:00;8.30;;;7.47;;
20381;SDS011;10350;51.280;12.400;2023-02-28T12:28:30;9.95;;;7.55;;
20381;SDS011;10350;51.280;12.400;2023-02-28T12:30:58;18.50;;;7.45;;
20381;SDS011;10350;51.280;12.400;2023-02-28T12:33:27;10.90;;;6.78;;
20381;SDS011;10350;51.280;12.400;2023-02-28T12:35:57;10.68;;;6.68;;
20381;SDS011;10350;51.280;12.400;2023-02-28T12:41:10;11.43;;;6.40;;
20381;SDS011;10350;51.280;12.400;2023-02-28T12:43:38;9.18;;;6.88;;
20381;SDS011;10350;51.280;12.400;2023-02-28T12:46:07;8.50;;;6.63;;
20381;SDS011;10350;51.280;12.400;2023-02-28T12:48:48;10.82;;;6.47;;
20381;SDS011;10350;51.280;12.400;2023-02-28T12:51:16;10.23;;;6.13;;
20381;SDS011;10350;51.280;12.400;2023-02-28T12:53:51;11.00;;;6.30;;
20381;SDS011;10350;51.280;12.400;2023-02-28T12:58:58;9.75;;;6.95;;
20381;SDS011;10350;51.280;12.400;2023-02-28T13:01:45;12.45;;;7.05;;
20381;SDS011;10350;51.280;12.400;2023-02-28T13:04:26;16.23;;;8.00;;
20381;SDS011;10350;51.280;12.400;2023-02-28T13:09:25;11.43;;;7.13;;
20381;SDS011;10350;51.280;12.400;2023-02-28T13:11:51;11.30;;;7.43;;
20381;SDS011;10350;51.280;12.400;2023-02-28T13:14:28;9.73;;;7.38;;
20381;SDS011;10350;51.280;12.400;2023-02-28T13:19:23;13.25;;;7.13;;
20381;SDS011;10350;51.280;12.400;2023-02-28T13:21:50;12.52;;;7.47;;
20381;SDS011;10350;51.280;12.400;2023-02-28T13:29:28;10.70;;;7.07;;
20381;SDS011;10350;51.280;12.400;2023-02-28T13:34:34;11.98;;;7.97;;
20381;SDS011;10350;51.280;12.400;2023-02-28T13:37:30;9.32;;;6.80;;
20381;SDS011;10350;51.280;12.400;2023-02-28T13:39:48;11.23;;;7.10;;
20381;SDS011;10350;51.280;12.400;2023-02-28T13:47:40;11.63;;;7.13;;
20381;SDS011;10350;51.280;12.400;2023-02-28T13:50:15;11.05;;;7.45;;
20381;SDS011;10350;51.280;12.400;2023-02-28T13:52:46;10.32;;;6.97;;
20381;SDS011;10350;51.280;12.400;2023-02-28T14:05:29;9.93;;;6.63;;
20381;SDS011;10350;51.280;12.400;2023-02-28T14:07:57;9.43;;;6.85;;
20381;SDS011;10350;51.280;12.400;2023-02-28T14:10:28;11.70;;;8.80;;
20381;SDS011;10350;51.280;12.400;2023-02-28T14:12:59;9.50;;;7.35;;
20381;SDS011;10350;51.280;12.400;2023-02-28T14:18:15;8.23;;;6.68;;
20381;SDS011;10350;51.280;12.400;2023-02-28T14:20:42;12.55;;;7.53;;
20381;SDS011;10350;51.280;12.400;2023-02-28T14:23:26;13.13;;;7.15;;
20381;SDS011;10350;51.280;12.400;2023-02-28T14:26:11;9.23;;;7.00;;
20381;SDS011;10350;51.280;12.400;2023-02-28T14:31:25;9.77;;;7.13;;
20381;SDS011;10350;51.280;12.400;2023-02-28T14:34:17;8.30;;;7.03;;
20381;SDS011;10350;51.280;12.400;2023-02-28T14:36:46;11.50;;;7.35;;
20381;SDS011;10350;51.280;12.400;2023-02-28T14:39:16;11.68;;;7.40;;
20381;SDS011;10350;51.280;12.400;2023-02-28T14:41:44;14.48;;;8.55;;
20381;SDS011;10350;51.280;12.400;2023-02-28T14:46:42;14.65;;;7.07;;
20381;SDS011;10350;51.280;12.400;2023-02-28T14:49:13;10.13;;;7.18;;
20381;SDS011;10350;51.280;12.400;2023-02-28T14:51:40;11.85;;;7.45;;
20381;SDS011;10350;51.280;12.400;2023-02-28T14:54:06;11.40;;;7.72;;
20381;SDS011;10350;51.280;12.400;2023-02-28T14:56:34;14.20;;;7.20;;
20381;SDS011;10350;51.280;12.400;2023-02-28T14:59:00;10.40;;;7.25;;
20381;SDS011;10350;51.280;12.400;2023-02-28T15:01:26;9.55;;;8.13;;
20381;SDS011;10350;51.280;12.400;2023-02-28T15:03:59;14.30;;;7.13;;
20381;SDS011;10350;51.280;12.400;2023-02-28T15:06:26;11.82;;;7.57;;
20381;SDS011;10350;51.280;12.400;2023-02-28T15:11:37;11.20;;;7.38;;
20381;SDS011;10350;51.280;12.400;2023-02-28T15:14:04;9.75;;;7.55;;
20381;SDS011;10350;51.280;12.400;2023-02-28T15:16:34;13.38;;;7.38;;
20381;SDS011;10350;51.280;12.400;2023-02-28T15:21:45;11.02;;;7.55;;
20381;SDS011;10350;51.280;12.400;2023-02-28T15:24:16;13.10;;;8.00;;
20381;SDS011;10350;51.280;12.400;2023-02-28T15:26:59;12.20;;;7.07;;
20381;SDS011;10350;51.280;12.400;2023-02-28T15:29:26;11.45;;;7.47;;
20381;SDS011;10350;51.280;12.400;2023-02-28T15:32:06;20.98;;;8.13;;
20381;SDS011;10350;51.280;12.400;2023-02-28T15:34:37;16.40;;;8.05;;
20381;SDS011;10350;51.280;12.400;2023-02-28T15:39:48;14.00;;;8.40;;
20381;SDS011;10350;51.280;12.400;2023-02-28T15:42:21;12.40;;;8.15;;
20381;SDS011;10350;51.280;12.400;2023-02-28T15:44:47;11.18;;;7.22;;
20381;SDS011;10350;51.280;12.400;2023-02-28T15:49:40;15.18;;;8.13;;
20381;SDS011;10350;51.280;12.400;2023-02-28T15:52:09;14.93;;;8.43;;
20381;SDS011;10350;51.280;12.400;2023-02-28T15:54:37;10.07;;;7.30;;
20381;SDS011;10350;51.280;12.400;2023-02-28T15:57:06;13.82;;;7.82;;
20381;SDS011;10350;51.280;12.400;2023-02-28T15:59:33;12.73;;;7.82;;
20381;SDS011;10350;51.280;12.400;2023-02-28T16:07:11;12.25;;;7.90;;
20381;SDS011;10350;51.280;12.400;2023-02-28T16:09:37;14.85;;;8.63;;
20381;SDS011;10350;51.280;12.400;2023-02-28T16:12:03;10.02;;;7.55;;
20381;SDS011;10350;51.280;12.400;2023-02-28T16:14:30;12.93;;;8.15;;
20381;SDS011;10350;51.280;12.400;2023-02-28T16:16:57;13.40;;;8.48;;
20381;SDS011;10350;51.280;12.400;2023-02-28T16:19:27;14.70;;;8.38;;
20381;SDS011;10350;51.280;12.400;2023-02-28T16:21:54;11.60;;;7.60;;
20381;SDS011;10350;51.280;12.400;2023-02-28T16:24:19;14.10;;;7.38;;